sensor_id;sensor_type;location;lat;lon;timestamp;P1;durP1;ratioP1;P2;durP2;ratioP2
67712;SDS011;54503;55.784;49.138;2022-12-18T00:04:58;32.23;;;10.45;;
67712;SDS011;54503;55.784;49.138;2022-12-18T00:10:04;29.37;;;10.37;;
67712;SDS011;54503;55.784;49.138;2022-12-18T00:15:23;31.40;;;11.18;;
67712;SDS011;54503;55.784;49.138;2022-12-18T00:20:43;30.08;;;10.20;;
67712;SDS011;54503;55.784;49.138;2022-12-18T00:25:48;34.17;;;11.27;;
67712;SDS011;54503;55.784;49.138;2022-12-18T00:36:33;29.87;;;9.30;;
67712;SDS011;54503;55.784;49.138;2022-12-18T00:41:38;35.60;;;11.20;;
67712;SDS011;54503;55.784;49.138;2022-12-18T00:47:03;40.03;;;11.38;;
67712;SDS011;54503;55.784;49.138;2022-12-18T00:52:08;32.95;;;10.60;;
67712;SDS011;54503;55.784;49.138;2022-12-18T00:57:25;35.33;;;10.88;;
67712;SDS011;54503;55.784;49.138;2022-12-18T01:02:31;35.23;;;11.30;;
67712;SDS011;54503;55.784;49.138;2022-12-18T01:07:50;39.20;;;11.73;;
67712;SDS011;54503;55.784;49.138;2022-12-18T01:13:10;35.45;;;10.35;;
67712;SDS011;54503;55.784;49.138;2022-12-18T01:18:17;36.53;;;10.90;;
67712;SDS011;54503;55.784;49.138;2022-12-18T01:23:50;39.88;;;10.40;;
67712;SDS011;54503;55.784;49.138;2022-12-18T01:28:54;40.65;;;11.65;;
67712;SDS011;54503;55.784;49.138;2022-12-18T01:34:13;37.90;;;11.03;;
67712;SDS011;54503;55.784;49.138;2022-12-18T01:39:18;30.67;;;9.33;;
67712;SDS011;54503;55.784;49.138;2022-12-18T01:56:14;37.97;;;10.17;;
67712;SDS011;54503;55.784;49.138;2022-12-18T02:01:10;33.75;;;9.90;;
67712;SDS011;54503;55.784;49.138;2022-12-18T02:06:18;33.08;;;9.78;;
67712;SDS011;54503;55.784;49.138;2022-12-18T02:17:22;37.98;;;10.63;;
67712;SDS011;54503;55.784;49.138;2022-12-18T02:28:13;35.78;;;10.53;;
67712;SDS011;54503;55.784;49.138;2022-12-18T02:33:20;36.85;;;10.82;;
67712;SDS011;54503;55.784;49.138;2022-12-18T02:38:40;33.05;;;10.48;;
67712;SDS011;54503;55.784;49.138;2022-12-18T02:44:12;34.53;;;9.15;;
67712;SDS011;54503;55.784;49.138;2022-12-18T02:54:47;31.50;;;10.30;;
67712;SDS011;54503;55.784;49.138;2022-12-18T03:05:41;29.45;;;9.28;;
67712;SDS011;54503;55.784;49.138;2022-12-18T03:10:49;31.00;;;10.60;;
67712;SDS011;54503;55.784;49.138;2022-12-18T03:15:53;37.08;;;10.58;;
67712;SDS011;54503;55.784;49.138;2022-12-18T03:21:13;37.27;;;9.73;;
67712;SDS011;54503;55.784;49.138;2022-12-18T03:26:21;42.33;;;11.15;;
67712;SDS011;54503;55.784;49.138;2022-12-18T03:31:51;29.25;;;9.38;;
67712;SDS011;54503;55.784;49.138;2022-12-18T03:36:56;42.15;;;11.97;;
67712;SDS011;54503;55.784;49.138;2022-12-18T03:58:29;36.83;;;11.70;;
67712;SDS011;54503;55.784;49.138;2022-12-18T04:03:50;38.38;;;11.63;;
67712;SDS011;54503;55.784;49.138;2022-12-18T04:09:09;25.40;;;7.90;;
67712;SDS011;54503;55.784;49.138;2022-12-18T04:14:29;26.87;;;8.60;;
67712;SDS011;54503;55.784;49.138;2022-12-18T04:19:43;27.17;;;8.38;;
67712;SDS011;54503;55.784;49.138;2022-12-18T04:24:48;28.73;;;7.83;;
67712;SDS011;54503;55.784;49.138;2022-12-18T04:30:06;23.98;;;8.15;;
67712;SDS011;54503;55.784;49.138;2022-12-18T04:35:11;19.85;;;6.92;;
67712;SDS011;54503;55.784;49.138;2022-12-18T04:40:17;20.80;;;7.17;;
67712;SDS011;54503;55.784;49.138;2022-12-18T04:45:34;23.43;;;6.77;;
67712;SDS011;54503;55.784;49.138;2022-12-18T04:50:40;19.67;;;6.42;;
67712;SDS011;54503;55.784;49.138;2022-12-18T04:55:45;16.47;;;5.60;;
67712;SDS011;54503;55.784;49.138;2022-12-18T05:01:02;14.77;;;5.00;;
67712;SDS011;54503;55.784;49.138;2022-12-18T05:06:08;17.42;;;5.72;;
67712;SDS011;54503;55.784;49.138;2022-12-18T05:11:15;14.03;;;4.42;;
67712;SDS011;54503;55.784;49.138;2022-12-18T05:16:33;11.43;;;3.90;;
67712;SDS011;54503;55.784;49.138;2022-12-18T05:21:52;12.35;;;3.87;;
67712;SDS011;54503;55.784;49.138;2022-12-18T05:27:11;13.35;;;3.90;;
67712;SDS011;54503;55.784;49.138;2022-12-18T05:32:16;10.23;;;2.70;;
67712;SDS011;54503;55.784;49.138;2022-12-18T05:37:35;11.90;;;3.67;;
67712;SDS011;54503;55.784;49.138;2022-12-18T05:42:57;8.45;;;2.75;;
67712;SDS011;54503;55.784;49.138;2022-12-18T05:48:02;12.25;;;3.25;;
67712;SDS011;54503;55.784;49.138;2022-12-18T05:53:08;10.97;;;3.10;;
67712;SDS011;54503;55.784;49.138;2022-12-18T05:58:32;8.73;;;3.40;;
67712;SDS011;54503;55.784;49.138;2022-12-18T06:03:52;13.03;;;3.40;;
67712;SDS011;54503;55.784;49.138;2022-12-18T06:09:11;9.18;;;3.27;;
67712;SDS011;54503;55.784;49.138;2022-12-18T06:14:26;9.60;;;3.52;;
67712;SDS011;54503;55.784;49.138;2022-12-18T06:19:31;9.00;;;3.70;;
67712;SDS011;54503;55.784;49.138;2022-12-18T06:24:36;10.98;;;3.50;;
67712;SDS011;54503;55.784;49.138;2022-12-18T06:29:54;9.58;;;3.72;;
67712;SDS011;54503;55.784;49.138;2022-12-18T06:34:59;7.43;;;3.03;;
67712;SDS011;54503;55.784;49.138;2022-12-18T06:40:18;8.63;;;2.67;;
67712;SDS011;54503;55.784;49.138;2022-12-18T06:45:37;9.98;;;3.52;;
67712;SDS011;54503;55.784;49.138;2022-12-18T06:50:57;10.23;;;3.35;;
67712;SDS011;54503;55.784;49.138;2022-12-18T06:56:16;10.05;;;3.45;;
67712;SDS011;54503;55.784;49.138;2022-12-18T07:01:22;9.40;;;3.60;;
67712;SDS011;54503;55.784;49.138;2022-12-18T07:06:28;9.05;;;3.92;;
67712;SDS011;54503;55.784;49.138;2022-12-18T07:11:45;9.55;;;4.22;;
67712;SDS011;54503;55.784;49.138;2022-12-18T07:16:50;10.17;;;4.80;;
67712;SDS011;54503;55.784;49.138;2022-12-18T07:22:18;9.67;;;3.03;;
67712;SDS011;54503;55.784;49.138;2022-12-18T07:27:24;10.85;;;4.20;;
67712;SDS011;54503;55.784;49.138;2022-12-18T07:33:03;10.90;;;4.42;;
67712;SDS011;54503;55.784;49.138;2022-12-18T07:38:07;10.55;;;4.42;;
67712;SDS011;54503;55.784;49.138;2022-12-18T07:43:35;12.30;;;4.90;;
67712;SDS011;54503;55.784;49.138;2022-12-18T07:48:41;8.45;;;3.98;;
67712;SDS011;54503;55.784;49.138;2022-12-18T07:53:46;9.90;;;3.23;;
67712;SDS011;54503;55.784;49.138;2022-12-18T07:59:06;9.60;;;4.08;;
67712;SDS011;54503;55.784;49.138;2022-12-18T08:04:25;10.87;;;4.63;;
67712;SDS011;54503;55.784;49.138;2022-12-18T08:09:44;8.83;;;3.70;;
67712;SDS011;54503;55.784;49.138;2022-12-18T08:14:50;8.33;;;3.20;;
67712;SDS011;54503;55.784;49.138;2022-12-18T08:19:55;9.17;;;3.50;;
67712;SDS011;54503;55.784;49.138;2022-12-18T08:25:01;7.15;;;2.62;;
67712;SDS011;54503;55.784;49.138;2022-12-18T08:30:13;6.27;;;2.77;;
67712;SDS011;54503;55.784;49.138;2022-12-18T08:35:34;7.75;;;2.60;;
67712;SDS011;54503;55.784;49.138;2022-12-18T08:40:39;6.05;;;2.60;;
67712;SDS011;54503;55.784;49.138;2022-12-18T08:45:58;5.50;;;2.20;;
67712;SDS011;54503;55.784;49.138;2022-12-18T08:51:05;5.65;;;1.92;;
67712;SDS011;54503;55.784;49.138;2022-12-18T08:56:10;5.33;;;1.90;;
67712;SDS011;54503;55.784;49.138;2022-12-18T09:01:30;5.30;;;2.08;;
67712;SDS011;54503;55.784;49.138;2022-12-18T09:11:59;4.63;;;1.80;;
67712;SDS011;54503;55.784;49.138;2022-12-18T09:17:18;4.42;;;1.50;;
67712;SDS011;54503;55.784;49.138;2022-12-18T09:27:59;7.70;;;2.20;;
67712;SDS011;54503;55.784;49.138;2022-12-18T09:33:18;5.25;;;1.95;;
67712;SDS011;54503;55.784;49.138;2022-12-18T09:38:35;5.55;;;1.92;;
67712;SDS011;54503;55.784;49.138;2022-12-18T09:49:01;5.83;;;1.90;;
67712;SDS011;54503;55.784;49.138;2022-12-18T09:54:11;6.55;;;2.27;;
67712;SDS011;54503;55.784;49.138;2022-12-18T09:59:35;8.03;;;2.97;;
67712;SDS011;54503;55.784;49.138;2022-12-18T10:10:43;7.20;;;2.63;;
67712;SDS011;54503;55.784;49.138;2022-12-18T10:21:45;7.25;;;2.90;;
67712;SDS011;54503;55.784;49.138;2022-12-18T10:32:29;9.90;;;3.30;;
67712;SDS011;54503;55.784;49.138;2022-12-18T10:43:14;8.83;;;3.25;;
67712;SDS011;54503;55.784;49.138;2022-12-18T10:53:55;5.72;;;2.27;;
67712;SDS011;54503;55.784;49.138;2022-12-18T10:59:02;7.60;;;3.22;;
67712;SDS011;54503;55.784;49.138;2022-12-18T11:04:22;6.87;;;2.42;;
67712;SDS011;54503;55.784;49.138;2022-12-18T11:09:41;7.40;;;2.90;;
67712;SDS011;54503;55.784;49.138;2022-12-18T11:15:00;11.28;;;4.15;;
67712;SDS011;54503;55.784;49.138;2022-12-18T11:52:56;7.87;;;2.98;;
67712;SDS011;54503;55.784;49.138;2022-12-18T12:14:48;7.58;;;2.85;;
67712;SDS011;54503;55.784;49.138;2022-12-18T12:37:03;7.92;;;3.25;;
67712;SDS011;54503;55.784;49.138;2022-12-18T12:41:49;8.85;;;3.77;;
67712;SDS011;54503;55.784;49.138;2022-12-18T12:47:14;11.40;;;3.47;;
67712;SDS011;54503;55.784;49.138;2022-12-18T13:08:59;15.38;;;4.65;;
67712;SDS011;54503;55.784;49.138;2022-12-18T13:14:05;12.47;;;4.28;;
67712;SDS011;54503;55.784;49.138;2022-12-18T13:19:25;9.20;;;3.47;;
67712;SDS011;54503;55.784;49.138;2022-12-18T13:24:45;10.45;;;4.03;;
67712;SDS011;54503;55.784;49.138;2022-12-18T13:30:15;11.30;;;4.10;;
67712;SDS011;54503;55.784;49.138;2022-12-18T13:46:43;9.50;;;3.83;;
67712;SDS011;54503;55.784;49.138;2022-12-18T13:51:32;10.00;;;4.37;;
67712;SDS011;54503;55.784;49.138;2022-12-18T13:56:42;9.08;;;3.98;;
67712;SDS011;54503;55.784;49.138;2022-12-18T14:02:00;8.20;;;3.30;;
67712;SDS011;54503;55.784;49.138;2022-12-18T14:12:58;10.70;;;4.22;;
67712;SDS011;54503;55.784;49.138;2022-12-18T14:23:44;12.53;;;4.97;;
67712;SDS011;54503;55.784;49.138;2022-12-18T14:34:43;10.35;;;4.25;;
67712;SDS011;54503;55.784;49.138;2022-12-18T14:40:04;11.22;;;4.03;;
67712;SDS011;54503;55.784;49.138;2022-12-18T15:13:25;10.30;;;4.60;;
67712;SDS011;54503;55.784;49.138;2022-12-18T15:18:31;14.63;;;4.00;;
67712;SDS011;54503;55.784;49.138;2022-12-18T15:23:45;13.95;;;4.47;;
67712;SDS011;54503;55.784;49.138;2022-12-18T15:28:58;8.50;;;3.53;;
67712;SDS011;54503;55.784;49.138;2022-12-18T15:39:41;10.75;;;4.30;;
67712;SDS011;54503;55.784;49.138;2022-12-18T15:45:02;8.30;;;3.80;;
67712;SDS011;54503;55.784;49.138;2022-12-18T15:50:07;10.63;;;3.80;;
67712;SDS011;54503;55.784;49.138;2022-12-18T15:55:14;9.73;;;4.03;;
67712;SDS011;54503;55.784;49.138;2022-12-18T16:00:39;8.47;;;3.57;;
67712;SDS011;54503;55.784;49.138;2022-12-18T16:05:58;8.35;;;3.83;;
67712;SDS011;54503;55.784;49.138;2022-12-18T16:16:43;10.03;;;3.80;;
67712;SDS011;54503;55.784;49.138;2022-12-18T16:21:49;13.40;;;4.62;;
67712;SDS011;54503;55.784;49.138;2022-12-18T16:26:55;14.27;;;5.20;;
67712;SDS011;54503;55.784;49.138;2022-12-18T16:37:54;10.58;;;4.25;;
67712;SDS011;54503;55.784;49.138;2022-12-18T16:42:59;10.27;;;4.53;;
67712;SDS011;54503;55.784;49.138;2022-12-18T16:48:04;11.10;;;4.37;;
67712;SDS011;54503;55.784;49.138;2022-12-18T16:53:10;8.60;;;4.10;;
67712;SDS011;54503;55.784;49.138;2022-12-18T16:58:30;8.40;;;3.30;;
67712;SDS011;54503;55.784;49.138;2022-12-18T17:03:36;9.00;;;4.03;;
67712;SDS011;54503;55.784;49.138;2022-12-18T17:08:41;10.45;;;3.50;;
67712;SDS011;54503;55.784;49.138;2022-12-18T17:14:04;10.50;;;3.57;;
67712;SDS011;54503;55.784;49.138;2022-12-18T17:19:07;9.93;;;3.85;;
67712;SDS011;54503;55.784;49.138;2022-12-18T17:24:13;8.30;;;3.45;;
67712;SDS011;54503;55.784;49.138;2022-12-18T17:29:30;11.08;;;3.25;;
67712;SDS011;54503;55.784;49.138;2022-12-18T17:34:35;10.78;;;3.62;;
67712;SDS011;54503;55.784;49.138;2022-12-18T17:39:41;10.15;;;2.92;;
67712;SDS011;54503;55.784;49.138;2022-12-18T17:45:00;8.53;;;2.50;;
67712;SDS011;54503;55.784;49.138;2022-12-18T17:50:21;6.20;;;2.33;;
67712;SDS011;54503;55.784;49.138;2022-12-18T17:55:40;5.28;;;2.08;;
67712;SDS011;54503;55.784;49.138;2022-12-18T18:00:46;5.95;;;1.90;;
67712;SDS011;54503;55.784;49.138;2022-12-18T18:11:28;8.28;;;1.80;;
67712;SDS011;54503;55.784;49.138;2022-12-18T18:16:53;10.73;;;2.73;;
67712;SDS011;54503;55.784;49.138;2022-12-18T18:21:59;8.48;;;2.40;;
67712;SDS011;54503;55.784;49.138;2022-12-18T18:27:17;12.80;;;2.42;;
67712;SDS011;54503;55.784;49.138;2022-12-18T18:32:23;4.97;;;1.77;;
67712;SDS011;54503;55.784;49.138;2022-12-18T18:37:28;6.62;;;1.75;;
67712;SDS011;54503;55.784;49.138;2022-12-18T18:42:47;3.98;;;1.10;;
67712;SDS011;54503;55.784;49.138;2022-12-18T18:48:15;5.77;;;1.40;;
67712;SDS011;54503;55.784;49.138;2022-12-18T18:53:20;3.15;;;1.02;;
67712;SDS011;54503;55.784;49.138;2022-12-18T18:58:26;2.67;;;0.65;;
67712;SDS011;54503;55.784;49.138;2022-12-18T19:03:43;2.42;;;0.90;;
67712;SDS011;54503;55.784;49.138;2022-12-18T19:08:50;3.20;;;1.00;;
67712;SDS011;54503;55.784;49.138;2022-12-18T19:19:15;6.62;;;1.62;;
67712;SDS011;54503;55.784;49.138;2022-12-18T19:24:20;4.77;;;1.50;;
67712;SDS011;54503;55.784;49.138;2022-12-18T19:29:25;7.45;;;2.05;;
67712;SDS011;54503;55.784;49.138;2022-12-18T19:34:44;5.00;;;1.33;;
67712;SDS011;54503;55.784;49.138;2022-12-18T19:40:04;2.72;;;1.00;;
67712;SDS011;54503;55.784;49.138;2022-12-18T19:45:23;3.62;;;1.32;;
67712;SDS011;54503;55.784;49.138;2022-12-18T19:50:28;5.20;;;1.20;;
67712;SDS011;54503;55.784;49.138;2022-12-18T19:55:38;5.30;;;1.20;;
67712;SDS011;54503;55.784;49.138;2022-12-18T20:00:52;3.10;;;1.10;;
67712;SDS011;54503;55.784;49.138;2022-12-18T20:11:48;3.53;;;1.20;;
67712;SDS011;54503;55.784;49.138;2022-12-18T20:16:53;2.42;;;0.85;;
67712;SDS011;54503;55.784;49.138;2022-12-18T20:21:58;3.03;;;1.13;;
67712;SDS011;54503;55.784;49.138;2022-12-18T20:27:17;3.20;;;1.10;;
67712;SDS011;54503;55.784;49.138;2022-12-18T20:32:36;4.92;;;1.07;;
67712;SDS011;54503;55.784;49.138;2022-12-18T20:37:55;4.17;;;1.13;;
67712;SDS011;54503;55.784;49.138;2022-12-18T20:43:00;3.22;;;1.32;;
67712;SDS011;54503;55.784;49.138;2022-12-18T20:48:06;2.43;;;0.70;;
67712;SDS011;54503;55.784;49.138;2022-12-18T20:53:12;4.35;;;1.20;;
67712;SDS011;54503;55.784;49.138;2022-12-18T20:58:31;3.37;;;1.15;;
67712;SDS011;54503;55.784;49.138;2022-12-18T21:03:50;4.13;;;1.40;;
67712;SDS011;54503;55.784;49.138;2022-12-18T21:08:56;4.58;;;1.65;;
67712;SDS011;54503;55.784;49.138;2022-12-18T21:20:00;5.78;;;2.05;;
67712;SDS011;54503;55.784;49.138;2022-12-18T21:25:06;6.08;;;2.40;;
67712;SDS011;54503;55.784;49.138;2022-12-18T21:30:25;7.37;;;2.80;;
67712;SDS011;54503;55.784;49.138;2022-12-18T21:35:30;7.15;;;2.30;;
67712;SDS011;54503;55.784;49.138;2022-12-18T21:40:49;9.37;;;3.30;;
67712;SDS011;54503;55.784;49.138;2022-12-18T21:45:54;10.03;;;4.87;;
67712;SDS011;54503;55.784;49.138;2022-12-18T21:51:00;9.13;;;4.22;;
67712;SDS011;54503;55.784;49.138;2022-12-18T21:56:19;14.47;;;5.37;;
67712;SDS011;54503;55.784;49.138;2022-12-18T22:01:24;11.73;;;5.03;;
67712;SDS011;54503;55.784;49.138;2022-12-18T22:06:43;13.37;;;5.23;;
67712;SDS011;54503;55.784;49.138;2022-12-18T22:12:03;12.33;;;4.92;;
67712;SDS011;54503;55.784;49.138;2022-12-18T22:17:08;12.35;;;5.08;;
67712;SDS011;54503;55.784;49.138;2022-12-18T22:22:27;10.73;;;4.70;;
67712;SDS011;54503;55.784;49.138;2022-12-18T22:27:33;11.05;;;4.28;;
67712;SDS011;54503;55.784;49.138;2022-12-18T22:32:50;12.80;;;3.52;;
67712;SDS011;54503;55.784;49.138;2022-12-18T22:37:57;9.77;;;4.03;;
67712;SDS011;54503;55.784;49.138;2022-12-18T22:43:16;8.38;;;3.50;;
67712;SDS011;54503;55.784;49.138;2022-12-18T22:48:35;8.95;;;4.00;;
67712;SDS011;54503;55.784;49.138;2022-12-18T22:53:54;10.78;;;4.00;;
67712;SDS011;54503;55.784;49.138;2022-12-18T22:59:24;11.05;;;4.20;;
67712;SDS011;54503;55.784;49.138;2022-12-18T23:04:29;12.65;;;4.80;;
67712;SDS011;54503;55.784;49.138;2022-12-18T23:09:48;10.33;;;3.97;;
67712;SDS011;54503;55.784;49.138;2022-12-18T23:15:09;10.08;;;4.50;;
67712;SDS011;54503;55.784;49.138;2022-12-18T23:20:28;13.10;;;5.13;;
67712;SDS011;54503;55.784;49.138;2022-12-18T23:25:58;17.20;;;5.27;;
67712;SDS011;54503;55.784;49.138;2022-12-18T23:36:24;12.23;;;4.85;;
67712;SDS011;54503;55.784;49.138;2022-12-18T23:41:43;12.55;;;4.70;;
67712;SDS011;54503;55.784;49.138;2022-12-18T23:47:02;12.23;;;5.03;;
67712;SDS011;54503;55.784;49.138;2022-12-18T23:52:21;14.90;;;4.80;;
67712;SDS011;54503;55.784;49.138;2022-12-18T23:57:27;15.10;;;5.55;;
